createdAt,value
2022-12-01T00:01:19.682Z,-11.74
2022-12-01T00:03:46.457Z,-11.76
2022-12-01T00:06:16.527Z,-11.79
2022-12-01T00:09:04.486Z,-11.86
2022-12-01T00:11:31.867Z,-11.91
2022-12-01T00:13:58.787Z,-11.95
2022-12-01T00:16:25.781Z,-11.98
2022-12-01T00:18:53.622Z,-11.99
2022-12-01T00:21:22.773Z,-12.01
2022-12-01T00:23:57.662Z,-12.00
2022-12-01T00:26:25.826Z,-12.04
2022-12-01T00:28:54.421Z,-12.05
2022-12-01T00:31:21.826Z,-12.07
2022-12-01T00:33:48.611Z,-12.09
2022-12-01T00:36:15.537Z,-12.08
2022-12-01T00:38:42.541Z,-12.07
2022-12-01T00:41:09.547Z,-12.06
2022-12-01T00:43:36.462Z,-12.02
2022-12-01T00:46:03.561Z,-11.99
2022-12-01T00:48:30.440Z,-11.97
2022-12-01T00:50:57.311Z,-11.96
2022-12-01T00:53:24.727Z,-11.99
2022-12-01T00:55:54.064Z,-12.01
2022-12-01T00:58:21.676Z,-12.02
2022-12-01T01:00:48.742Z,-12.07
2022-12-01T01:03:15.802Z,-12.11
2022-12-01T01:05:43.641Z,-12.11
2022-12-01T01:08:14.972Z,-12.14
2022-12-01T01:10:43.802Z,-12.18
2022-12-01T01:13:11.661Z,-12.22
2022-12-01T01:15:38.882Z,-12.29
2022-12-01T01:18:06.714Z,-12.32
2022-12-01T01:20:33.902Z,-12.35
2022-12-01T01:23:00.751Z,-12.37
2022-12-01T01:25:27.530Z,-12.41
2022-12-01T01:27:54.327Z,-12.44
2022-12-01T01:30:21.203Z,-12.42
2022-12-01T01:32:48.037Z,-12.40
2022-12-01T01:35:14.855Z,-12.40
2022-12-01T01:37:41.622Z,-12.39
2022-12-01T01:40:09.135Z,-12.43
2022-12-01T01:42:35.870Z,-12.45
2022-12-01T01:45:02.800Z,-12.50
2022-12-01T01:47:34.556Z,-12.50
2022-12-01T01:50:09.261Z,-12.52
2022-12-01T01:52:45.054Z,-12.55
2022-12-01T01:55:12.823Z,-12.58
2022-12-01T01:57:40.715Z,-12.58
2022-12-01T02:00:14.450Z,-12.58
2022-12-01T02:02:46.051Z,-12.60
2022-12-01T02:05:25.834Z,-12.55
2022-12-01T02:07:55.250Z,-12.57
2022-12-01T02:10:29.598Z,-12.54
2022-12-01T02:13:31.612Z,-12.49
2022-12-01T02:16:17.357Z,-12.49
2022-12-01T02:18:56.253Z,-12.48
2022-12-01T02:21:48.195Z,-12.44
2022-12-01T02:24:25.212Z,-12.48
2022-12-01T02:27:02.284Z,-12.43
2022-12-01T02:29:47.724Z,-12.45
2022-12-01T02:32:33.428Z,-12.43
2022-12-01T02:35:40.334Z,-12.41
2022-12-01T02:38:20.007Z,-12.43
2022-12-01T02:40:50.906Z,-12.46
2022-12-01T02:43:30.612Z,-12.37
2022-12-01T02:46:22.969Z,-12.32
2022-12-01T02:48:53.417Z,-12.33
2022-12-01T02:51:22.521Z,-12.35
2022-12-01T02:53:49.652Z,-12.44
2022-12-01T02:56:21.319Z,-12.44
2022-12-01T02:58:48.080Z,-12.51
2022-12-01T03:01:43.144Z,-12.43
2022-12-01T03:04:25.099Z,-12.43
2022-12-01T03:07:17.488Z,-12.36
2022-12-01T03:09:52.928Z,-12.42
2022-12-01T03:12:19.600Z,-12.41
2022-12-01T03:15:02.156Z,-12.37
2022-12-01T03:17:44.032Z,-12.37
2022-12-01T03:20:41.347Z,-12.37
2022-12-01T03:23:14.160Z,-12.40
2022-12-01T03:25:44.223Z,-12.42
2022-12-01T03:28:21.085Z,-12.42
2022-12-01T03:30:50.982Z,-12.43
2022-12-01T03:33:35.030Z,-12.40
2022-12-01T03:36:09.216Z,-12.42
2022-12-01T03:38:37.662Z,-12.44
2022-12-01T03:41:19.480Z,-12.42
2022-12-01T03:43:53.500Z,-12.49
2022-12-01T03:46:46.511Z,-12.46
2022-12-01T03:49:16.423Z,-12.54
2022-12-01T03:51:46.047Z,-12.55
2022-12-01T03:54:34.605Z,-12.51
2022-12-01T03:57:08.458Z,-12.49
2022-12-01T03:59:37.847Z,-12.52
2022-12-01T04:02:07.090Z,-12.55
2022-12-01T04:04:34.167Z,-12.59
2022-12-01T04:07:00.890Z,-12.60
2022-12-01T04:09:27.711Z,-12.61
2022-12-01T04:12:13.268Z,-12.58
2022-12-01T04:14:40.062Z,-12.58
2022-12-01T04:17:06.819Z,-12.55
2022-12-01T04:19:33.575Z,-12.55
2022-12-01T04:22:00.436Z,-12.57
2022-12-01T04:24:27.152Z,-12.59
2022-12-01T04:26:53.824Z,-12.62
2022-12-01T04:29:20.529Z,-12.61
2022-12-01T04:31:47.381Z,-12.58
2022-12-01T04:34:14.117Z,-12.57
2022-12-01T04:36:40.903Z,-12.54
2022-12-01T04:39:07.589Z,-12.53
2022-12-01T04:41:34.404Z,-12.51
2022-12-01T04:44:01.143Z,-12.51
2022-12-01T04:46:28.268Z,-12.51
2022-12-01T04:48:55.071Z,-12.50
2022-12-01T04:51:22.385Z,-12.52
2022-12-01T04:53:50.756Z,-12.54
2022-12-01T04:56:17.984Z,-12.57
2022-12-01T04:58:45.816Z,-12.56
2022-12-01T05:01:15.236Z,-12.55
2022-12-01T05:03:44.295Z,-12.56
2022-12-01T05:06:17.222Z,-12.52
2022-12-01T05:08:44.120Z,-12.53
2022-12-01T05:11:12.463Z,-12.51
2022-12-01T05:13:40.950Z,-12.51
2022-12-01T05:16:14.006Z,-12.49
2022-12-01T05:18:41.553Z,-12.51
2022-12-01T05:21:10.779Z,-12.46
2022-12-01T05:23:39.035Z,-12.48
2022-12-01T05:26:08.401Z,-12.48
2022-12-01T05:28:36.108Z,-12.45
2022-12-01T05:31:03.898Z,-12.41
2022-12-01T05:33:31.565Z,-12.31
2022-12-01T05:35:58.343Z,-12.22
2022-12-01T05:38:25.204Z,-12.00
2022-12-01T05:40:53.675Z,-11.92
2022-12-01T05:43:28.287Z,-11.89
2022-12-01T05:45:56.187Z,-11.91
2022-12-01T05:48:23.031Z,-11.94
2022-12-01T05:50:49.810Z,-11.96
2022-12-01T05:53:16.798Z,-11.96
2022-12-01T05:55:43.618Z,-11.99
2022-12-01T05:58:10.813Z,-11.99
2022-12-01T06:00:45.401Z,-11.98
2022-12-01T06:03:13.564Z,-11.93
2022-12-01T06:05:41.086Z,-11.89
2022-12-01T06:08:08.417Z,-11.90
2022-12-01T06:10:35.179Z,-11.87
2022-12-01T06:13:01.900Z,-11.83
2022-12-01T06:15:28.692Z,-11.80
2022-12-01T06:17:58.650Z,-11.75
2022-12-01T06:20:25.872Z,-11.68
2022-12-01T06:22:52.666Z,-11.63
2022-12-01T06:25:19.409Z,-11.60
2022-12-01T06:27:46.126Z,-11.56
2022-12-01T06:30:13.249Z,-11.51
2022-12-01T06:32:40.032Z,-11.47
2022-12-01T06:35:07.343Z,-11.43
2022-12-01T06:37:34.163Z,-11.36
2022-12-01T06:40:01.367Z,-11.31
2022-12-01T06:42:31.623Z,-11.24
2022-12-01T06:44:58.409Z,-11.21
2022-12-01T06:47:25.218Z,-11.19
2022-12-01T06:49:52.239Z,-11.16
2022-12-01T06:52:19.271Z,-11.12
2022-12-01T06:54:46.015Z,-11.13
2022-12-01T06:57:12.987Z,-11.13
2022-12-01T06:59:39.849Z,-11.13
2022-12-01T07:02:06.955Z,-11.12
2022-12-01T07:04:33.730Z,-11.10
2022-12-01T07:07:00.459Z,-11.08
2022-12-01T07:09:27.231Z,-11.07
2022-12-01T07:11:53.942Z,-11.04
2022-12-01T07:14:24.848Z,-10.98
2022-12-01T07:16:51.762Z,-10.95
2022-12-01T07:19:19.080Z,-10.91
2022-12-01T07:21:45.935Z,-10.86
2022-12-01T07:24:13.137Z,-10.78
2022-12-01T07:26:41.236Z,-10.71
2022-12-01T07:29:09.376Z,-10.64
2022-12-01T07:31:37.319Z,-10.60
2022-12-01T07:34:05.142Z,-10.54
2022-12-01T07:36:31.984Z,-10.51
2022-12-01T07:38:58.866Z,-10.47
2022-12-01T07:41:25.661Z,-10.46
2022-12-01T07:43:52.449Z,-10.42
2022-12-01T07:46:23.657Z,-10.38
2022-12-01T07:48:52.324Z,-10.32
2022-12-01T07:51:20.015Z,-10.26
2022-12-01T07:53:49.235Z,-10.20
2022-12-01T07:56:16.804Z,-10.17
2022-12-01T07:58:44.430Z,-10.09
2022-12-01T08:01:17.828Z,-10.02
2022-12-01T08:04:01.067Z,-9.91
2022-12-01T08:06:32.716Z,-9.86
2022-12-01T08:08:59.906Z,-9.80
2022-12-01T08:11:29.886Z,-9.71
2022-12-01T08:13:58.991Z,-9.62
2022-12-01T08:16:26.392Z,-9.56
2022-12-01T08:18:53.936Z,-9.49
2022-12-01T08:21:22.643Z,-9.38
2022-12-01T08:23:58.706Z,-9.27
2022-12-01T08:26:26.291Z,-9.23
2022-12-01T08:28:53.225Z,-9.20
2022-12-01T08:31:31.742Z,-9.10
2022-12-01T08:33:59.154Z,-9.13
2022-12-01T08:36:26.660Z,-9.07
2022-12-01T08:38:55.570Z,-8.99
2022-12-01T08:41:24.664Z,-8.96
2022-12-01T08:43:59.635Z,-8.88
2022-12-01T08:46:36.651Z,-8.77
2022-12-01T08:49:06.985Z,-8.75
2022-12-01T08:51:33.988Z,-8.73
2022-12-01T08:54:00.839Z,-8.71
2022-12-01T08:56:31.443Z,-8.65
2022-12-01T08:59:01.832Z,-8.64
2022-12-01T09:01:31.180Z,-8.62
2022-12-01T09:04:06.848Z,-8.59
2022-12-01T09:06:39.714Z,-8.55
2022-12-01T09:09:09.062Z,-8.52
2022-12-01T09:11:35.904Z,-8.46
2022-12-01T09:14:06.603Z,-8.33
2022-12-01T09:16:33.577Z,-8.26
2022-12-01T09:19:00.463Z,-8.15
2022-12-01T09:21:33.009Z,-8.03
2022-12-01T09:24:01.592Z,-7.94
2022-12-01T09:26:28.890Z,-7.88
2022-12-01T09:28:58.817Z,-7.77
2022-12-01T09:31:25.617Z,-7.71
2022-12-01T09:33:57.451Z,-7.58
2022-12-01T09:36:24.566Z,-7.45
2022-12-01T09:38:51.326Z,-7.54
2022-12-01T09:41:43.982Z,-7.41
2022-12-01T09:44:14.101Z,-7.42
2022-12-01T09:46:48.536Z,-7.37
2022-12-01T09:49:56.511Z,-7.31
2022-12-01T09:52:26.714Z,-7.42
2022-12-01T09:54:55.306Z,-7.42
2022-12-01T09:57:33.633Z,-7.37
2022-12-01T10:00:04.604Z,-7.41
2022-12-01T10:02:44.088Z,-7.36
2022-12-01T10:05:16.597Z,-7.36
2022-12-01T10:07:49.056Z,-7.30
2022-12-01T10:10:27.976Z,-7.20
2022-12-01T10:12:54.823Z,-7.23
2022-12-01T10:15:27.392Z,-7.15
2022-12-01T10:17:59.969Z,-7.14
2022-12-01T10:20:49.240Z,-6.99
2022-12-01T10:23:24.860Z,-6.98
2022-12-01T10:26:03.752Z,-6.86
2022-12-01T10:28:49.264Z,-6.77
2022-12-01T10:31:21.621Z,-6.41
2022-12-01T10:34:20.071Z,-5.89
2022-12-01T10:36:47.206Z,-5.30
2022-12-01T10:39:23.948Z,-4.70
2022-12-01T10:41:51.664Z,-4.09
2022-12-01T10:44:19.136Z,-3.46
2022-12-01T10:46:56.248Z,-3.04
2022-12-01T10:49:39.184Z,-3.04
2022-12-01T10:52:07.034Z,-3.41
2022-12-01T10:54:40.156Z,-3.56
2022-12-01T10:57:17.521Z,-3.73
2022-12-01T10:59:58.056Z,-3.90
2022-12-01T11:02:28.098Z,-4.19
2022-12-01T11:05:00.036Z,-4.25
2022-12-01T11:07:44.230Z,-4.15
2022-12-01T11:10:29.955Z,-4.17
2022-12-01T11:13:06.102Z,-4.25
2022-12-01T11:15:38.513Z,-4.43
2022-12-01T11:18:26.970Z,-4.50
2022-12-01T11:21:05.545Z,-4.51
2022-12-01T11:23:35.332Z,-4.72
2022-12-01T11:26:20.744Z,-4.65
2022-12-01T11:29:02.977Z,-4.70
2022-12-01T11:31:50.973Z,-4.77
2022-12-01T11:34:26.678Z,-5.02
2022-12-01T11:37:00.348Z,-5.15
2022-12-01T11:39:37.905Z,-5.26
2022-12-01T11:42:14.660Z,-5.54
2022-12-01T11:44:53.379Z,-5.73
2022-12-01T11:47:24.431Z,-5.97
2022-12-01T11:49:55.294Z,-6.06
2022-12-01T11:52:30.612Z,-6.05
2022-12-01T11:55:19.077Z,-6.08
2022-12-01T11:57:49.388Z,-6.04
2022-12-01T12:00:21.580Z,-5.97
2022-12-01T12:03:00.961Z,-5.93
2022-12-01T12:05:39.776Z,-5.86
2022-12-01T12:08:38.724Z,-5.84
2022-12-01T12:11:22.525Z,-5.89
2022-12-01T12:13:49.296Z,-5.99
2022-12-01T12:16:40.855Z,-5.96
2022-12-01T12:19:34.111Z,-6.15
2022-12-01T12:22:39.882Z,-6.43
2022-12-01T12:25:12.482Z,-6.56
2022-12-01T12:27:47.652Z,-6.61
2022-12-01T12:30:32.123Z,-6.63
2022-12-01T12:33:32.762Z,-6.69
2022-12-01T12:35:59.485Z,-6.77
2022-12-01T12:38:26.191Z,-6.78
2022-12-01T12:41:05.032Z,-6.74
2022-12-01T12:43:57.831Z,-6.77
2022-12-01T12:46:57.742Z,-6.89
2022-12-01T12:49:36.336Z,-7.04
2022-12-01T12:52:10.987Z,-7.06
2022-12-01T12:54:49.969Z,-7.11
2022-12-01T12:57:40.774Z,-7.16
2022-12-01T13:00:18.180Z,-7.15
2022-12-01T13:03:07.421Z,-7.19
2022-12-01T13:05:59.049Z,-7.18
2022-12-01T13:08:34.587Z,-7.31
2022-12-01T13:11:10.619Z,-7.40
2022-12-01T13:13:46.936Z,-7.47
2022-12-01T13:16:18.583Z,-7.55
2022-12-01T13:18:48.315Z,-7.47
2022-12-01T13:21:19.132Z,-7.57
2022-12-01T13:23:48.606Z,-7.60
2022-12-01T13:26:17.471Z,-7.61
2022-12-01T13:28:49.815Z,-7.59
2022-12-01T13:31:19.076Z,-7.58
2022-12-01T13:34:02.816Z,-7.52
2022-12-01T13:36:46.403Z,-7.57
2022-12-01T13:39:29.471Z,-7.51
2022-12-01T13:42:21.787Z,-7.47
2022-12-01T13:44:58.240Z,-7.54
2022-12-01T13:47:24.979Z,-7.61
2022-12-01T13:49:53.093Z,-7.64
2022-12-01T13:52:22.761Z,-7.65
2022-12-01T13:55:09.379Z,-7.61
2022-12-01T13:57:44.967Z,-7.68
2022-12-01T14:00:27.353Z,-7.61
2022-12-01T14:03:12.679Z,-7.68
2022-12-01T14:05:42.334Z,-7.75
2022-12-01T14:08:28.900Z,-7.74
2022-12-01T14:10:59.741Z,-7.79
2022-12-01T14:13:28.324Z,-7.83
2022-12-01T14:16:00.626Z,-7.79
2022-12-01T14:18:40.541Z,-7.77
2022-12-01T14:21:10.594Z,-7.83
2022-12-01T14:23:58.393Z,-7.83
2022-12-01T14:26:25.539Z,-7.87
2022-12-01T14:28:55.197Z,-7.89
2022-12-01T14:31:23.822Z,-7.93
2022-12-01T14:33:54.496Z,-7.93
2022-12-01T14:36:24.337Z,-7.95
2022-12-01T14:38:57.119Z,-7.93
2022-12-01T14:42:02.848Z,-7.92
2022-12-01T14:44:36.450Z,-8.02
2022-12-01T14:47:12.324Z,-8.07
2022-12-01T14:50:10.118Z,-8.11
2022-12-01T14:52:52.249Z,-8.20
2022-12-01T14:55:23.467Z,-8.22
2022-12-01T14:57:52.816Z,-8.22
2022-12-01T15:00:22.466Z,-8.26
2022-12-01T15:02:56.129Z,-8.26
2022-12-01T15:05:27.160Z,-8.27
2022-12-01T15:08:40.235Z,-8.22
2022-12-01T15:11:06.444Z,-8.27
2022-12-01T15:13:39.101Z,-8.26
2022-12-01T15:16:15.259Z,-8.22
2022-12-01T15:18:42.187Z,-8.29
2022-12-01T15:21:11.737Z,-8.27
2022-12-01T15:24:15.403Z,-8.26
2022-12-01T15:26:55.914Z,-8.28
2022-12-01T15:29:33.107Z,-8.33
2022-12-01T15:32:02.496Z,-8.39
2022-12-01T15:34:37.200Z,-8.40
2022-12-01T15:37:07.072Z,-8.46
2022-12-01T15:39:43.629Z,-8.45
2022-12-01T15:42:25.025Z,-8.47
2022-12-01T15:45:02.047Z,-8.51
2022-12-01T15:47:44.940Z,-8.58
2022-12-01T15:50:26.876Z,-8.50
2022-12-01T15:52:53.466Z,-8.44
2022-12-01T15:55:28.196Z,-8.51
2022-12-01T15:57:55.133Z,-8.58
2022-12-01T16:00:22.777Z,-8.60
2022-12-01T16:02:53.361Z,-8.58
2022-12-01T16:05:24.797Z,-8.60
2022-12-01T16:08:13.633Z,-8.65
2022-12-01T16:10:38.783Z,-8.70
2022-12-01T16:13:43.578Z,-8.64
2022-12-01T16:16:31.475Z,-8.68
2022-12-01T16:19:21.907Z,-8.73
2022-12-01T16:21:57.140Z,-8.70
2022-12-01T16:24:28.157Z,-8.73
2022-12-01T16:26:59.455Z,-8.68
2022-12-01T16:29:28.491Z,-8.70
2022-12-01T16:32:19.328Z,-8.71
2022-12-01T16:34:47.254Z,-8.73
2022-12-01T16:37:15.398Z,-8.71
2022-12-01T16:39:42.575Z,-8.72
2022-12-01T16:42:15.765Z,-8.70
2022-12-01T16:44:44.809Z,-8.72
2022-12-01T16:47:23.113Z,-8.69
2022-12-01T16:49:50.919Z,-8.72
2022-12-01T16:55:43.086Z,-8.68
2022-12-01T16:58:10.480Z,-8.71
2022-12-01T17:00:37.242Z,-8.72
2022-12-01T17:03:05.471Z,-8.72
2022-12-01T17:05:33.062Z,-8.76
2022-12-01T17:08:00.330Z,-8.77
2022-12-01T17:10:27.179Z,-8.78
2022-12-01T17:12:54.033Z,-8.79
2022-12-01T17:15:20.992Z,-8.81
2022-12-01T17:17:47.770Z,-8.84
2022-12-01T17:20:14.545Z,-8.85
2022-12-01T17:22:41.698Z,-8.84
2022-12-01T17:25:11.812Z,-8.86
2022-12-01T17:27:39.892Z,-8.85
2022-12-01T17:30:08.064Z,-8.86
2022-12-01T17:32:34.954Z,-8.86
2022-12-01T17:35:01.825Z,-8.91
2022-12-01T17:37:30.741Z,-8.93
2022-12-01T17:39:57.603Z,-8.87
2022-12-01T17:42:24.420Z,-8.87
2022-12-01T17:44:51.359Z,-8.91
2022-12-01T17:47:18.336Z,-8.92
2022-12-01T17:49:45.056Z,-8.88
2022-12-01T17:52:11.999Z,-8.87
2022-12-01T17:54:39.178Z,-8.89
2022-12-01T17:57:07.419Z,-8.91
2022-12-01T17:59:36.959Z,-8.87
2022-12-01T18:02:04.378Z,-8.85
2022-12-01T18:04:31.809Z,-8.82
2022-12-01T18:06:59.187Z,-8.88
2022-12-01T18:09:26.023Z,-8.92
2022-12-01T18:11:56.185Z,-8.92
2022-12-01T18:14:24.343Z,-8.98
2022-12-01T18:16:51.980Z,-9.08
2022-12-01T18:19:19.503Z,-9.17
2022-12-01T18:21:46.467Z,-9.25
2022-12-01T18:24:13.293Z,-9.33
2022-12-01T18:26:41.111Z,-9.37
2022-12-01T18:29:13.013Z,-9.41
2022-12-01T18:31:40.033Z,-9.51
2022-12-01T18:34:08.045Z,-9.56
2022-12-01T18:36:37.605Z,-9.60
2022-12-01T18:39:07.767Z,-9.64
2022-12-01T18:41:35.867Z,-9.74
2022-12-01T18:44:02.775Z,-9.82
2022-12-01T18:46:29.820Z,-9.88
2022-12-01T18:49:04.675Z,-9.94
2022-12-01T18:51:33.616Z,-10.01
2022-12-01T18:54:02.348Z,-10.07
2022-12-01T18:56:30.037Z,-10.12
2022-12-01T18:58:59.499Z,-10.13
2022-12-01T19:01:28.803Z,-10.13
2022-12-01T19:03:56.828Z,-10.09
2022-12-01T19:06:24.770Z,-10.05
2022-12-01T19:08:52.847Z,-10.01
2022-12-01T19:11:20.363Z,-9.98
2022-12-01T19:13:47.884Z,-9.93
2022-12-01T19:16:17.215Z,-9.88
2022-12-01T19:18:44.299Z,-9.88
2022-12-01T19:21:13.281Z,-9.84
2022-12-01T19:23:40.240Z,-9.83
2022-12-01T19:26:10.780Z,-9.80
2022-12-01T19:28:38.697Z,-9.81
2022-12-01T19:31:08.052Z,-9.76
2022-12-01T19:33:35.495Z,-9.74
2022-12-01T19:36:11.189Z,-9.67
2022-12-01T19:38:38.499Z,-9.72
2022-12-01T19:41:06.125Z,-9.75
2022-12-01T19:43:37.182Z,-9.75
2022-12-01T19:46:24.546Z,-9.76
2022-12-01T19:49:01.808Z,-9.81
2022-12-01T19:51:37.388Z,-9.83
2022-12-01T19:54:14.505Z,-9.84
2022-12-01T19:56:41.313Z,-9.89
2022-12-01T19:59:08.215Z,-9.93
2022-12-01T20:01:35.086Z,-9.99
2022-12-01T20:04:01.894Z,-10.02
2022-12-01T20:06:31.336Z,-10.02
2022-12-01T20:09:03.279Z,-10.02
2022-12-01T20:11:32.761Z,-10.02
2022-12-01T20:13:59.901Z,-10.03
2022-12-01T20:16:28.158Z,-10.04
2022-12-01T20:18:55.097Z,-10.05
2022-12-01T20:21:24.960Z,-10.05
2022-12-01T20:23:58.192Z,-10.04
2022-12-01T20:26:30.821Z,-10.04
2022-12-01T20:29:04.044Z,-10.04
2022-12-01T20:31:32.286Z,-10.07
2022-12-01T20:34:01.471Z,-10.04
2022-12-01T20:36:28.540Z,-10.05
2022-12-01T20:38:55.718Z,-10.03
2022-12-01T20:41:23.420Z,-10.04
2022-12-01T20:43:50.331Z,-10.08
2022-12-01T20:46:17.177Z,-10.10
2022-12-01T20:48:44.275Z,-10.15
2022-12-01T20:51:13.694Z,-10.13
2022-12-01T20:53:44.443Z,-10.12
2022-12-01T20:56:21.379Z,-10.11
2022-12-01T20:58:48.164Z,-10.11
2022-12-01T21:01:17.206Z,-10.11
2022-12-01T21:03:45.485Z,-10.15
2022-12-01T21:06:14.629Z,-10.13
2022-12-01T21:08:43.279Z,-10.14
2022-12-01T21:11:45.200Z,-10.10
2022-12-01T21:14:43.987Z,-10.05
2022-12-01T21:17:33.925Z,-10.02
2022-12-01T21:20:12.972Z,-10.00
2022-12-01T21:22:40.007Z,-9.99
2022-12-01T21:25:12.453Z,-9.91
2022-12-01T21:27:43.032Z,-9.92
2022-12-01T21:30:21.998Z,-9.82
2022-12-01T21:32:49.567Z,-9.82
2022-12-01T21:35:22.301Z,-9.75
2022-12-01T21:37:49.883Z,-9.76
2022-12-01T21:40:18.251Z,-9.79
2022-12-01T21:42:45.757Z,-9.80
2022-12-01T21:45:32.124Z,-9.75
2022-12-01T21:48:15.819Z,-9.74
2022-12-01T21:50:42.582Z,-9.85
2022-12-01T21:53:20.249Z,-9.80
2022-12-01T21:55:49.237Z,-9.86
2022-12-01T21:58:24.573Z,-9.83
2022-12-01T22:00:55.726Z,-9.87
2022-12-01T22:03:34.345Z,-9.86
2022-12-01T22:06:32.759Z,-9.85
2022-12-01T22:09:11.957Z,-9.88
2022-12-01T22:11:38.644Z,-10.00
2022-12-01T22:14:08.377Z,-9.98
2022-12-01T22:16:47.017Z,-9.95
2022-12-01T22:19:16.704Z,-9.98
2022-12-01T22:21:54.748Z,-9.97
2022-12-01T22:24:42.243Z,-9.93
2022-12-01T22:27:38.213Z,-9.98
2022-12-01T22:30:08.039Z,-10.02
2022-12-01T22:32:59.045Z,-10.03
2022-12-01T22:35:48.241Z,-10.00
2022-12-01T22:38:38.151Z,-10.01
2022-12-01T22:41:15.895Z,-10.02
2022-12-01T22:43:51.455Z,-10.03
2022-12-01T22:46:32.005Z,-10.04
2022-12-01T22:49:06.382Z,-10.10
2022-12-01T22:51:41.278Z,-10.10
2022-12-01T22:54:24.737Z,-10.07
2022-12-01T22:57:03.621Z,-10.09
2022-12-01T22:59:38.793Z,-10.10
2022-12-01T23:02:23.975Z,-10.09
2022-12-01T23:04:59.003Z,-10.10
2022-12-01T23:07:41.581Z,-10.10
2022-12-01T23:10:33.848Z,-10.07
2022-12-01T23:13:12.772Z,-10.13
2022-12-01T23:15:43.066Z,-10.14
2022-12-01T23:18:24.788Z,-10.08
2022-12-01T23:20:54.038Z,-10.15
2022-12-01T23:23:26.021Z,-10.20
2022-12-01T23:25:52.796Z,-10.24
2022-12-01T23:28:20.391Z,-10.26
2022-12-01T23:30:51.182Z,-10.25
2022-12-01T23:33:29.744Z,-10.25
2022-12-01T23:36:06.000Z,-10.24
2022-12-01T23:38:42.445Z,-10.31
2022-12-01T23:41:38.966Z,-10.39
2022-12-01T23:44:22.691Z,-10.43
2022-12-01T23:46:53.024Z,-10.48
2022-12-01T23:49:24.256Z,-10.50
2022-12-01T23:51:53.749Z,-10.48
2022-12-01T23:54:21.875Z,-10.47
2022-12-01T23:56:53.155Z,-10.43
2022-12-01T23:59:21.129Z,-10.41
